createdAt,value
2019-03-30T00:01:21.334Z,101553.14
2019-03-30T00:03:52.006Z,101553.98
2019-03-30T00:06:22.656Z,101551.56
2019-03-30T00:08:53.614Z,101552.94
2019-03-30T00:11:24.638Z,101548.16
2019-03-30T00:13:56.792Z,101545.39
2019-03-30T00:16:27.790Z,101541.73
2019-03-30T00:18:58.468Z,101549.63
2019-03-30T00:21:29.227Z,101543.48
2019-03-30T00:24:00.558Z,101539.37
2019-03-30T00:26:33.202Z,101543.95
2019-03-30T00:29:04.437Z,101530.33
2019-03-30T00:31:35.437Z,101533.92
2019-03-30T00:34:06.864Z,101532.13
2019-03-30T00:36:38.582Z,101534.02
2019-03-30T00:39:10.042Z,101529.97
2019-03-30T00:41:45.026Z,101531.67
2019-03-30T00:44:15.962Z,101534.23
2019-03-30T00:46:47.853Z,101533.59
2019-03-30T00:49:19.023Z,101526.59
2019-03-30T00:51:50.081Z,101528.42
2019-03-30T00:54:20.770Z,101533.25
2019-03-30T00:56:51.919Z,101525.95
2019-03-30T00:59:23.149Z,101520.15
2019-03-30T01:01:54.933Z,101516.53
2019-03-30T01:04:25.635Z,101520.67
2019-03-30T01:06:56.822Z,101514.05
2019-03-30T01:09:27.506Z,101513.06
2019-03-30T01:12:01.335Z,101510.12
2019-03-30T01:14:32.867Z,101516.36
2019-03-30T01:17:04.731Z,101514.01
2019-03-30T01:19:35.680Z,101518.27
2019-03-30T01:22:06.724Z,101511.75
2019-03-30T01:24:37.731Z,101505.01
2019-03-30T01:27:08.922Z,101510.04
2019-03-30T01:29:39.933Z,101503.13
2019-03-30T01:32:11.545Z,101502.02
2019-03-30T01:34:42.529Z,101504.41
2019-03-30T01:37:13.201Z,101498.02
2019-03-30T01:39:44.300Z,101491.91
2019-03-30T01:42:15.109Z,101493.23
2019-03-30T01:44:45.797Z,101489.09
2019-03-30T01:47:17.032Z,101487.34
2019-03-30T01:49:48.331Z,101485.72
2019-03-30T01:52:19.098Z,101480.91
2019-03-30T01:54:50.784Z,101483.17
2019-03-30T01:57:21.492Z,101483.75
2019-03-30T01:59:52.307Z,101484.91
2019-03-30T02:02:24.460Z,101483.80
2019-03-30T02:04:55.794Z,101480.97
2019-03-30T02:07:29.065Z,101481.32
2019-03-30T02:10:00.369Z,101479.56
2019-03-30T02:12:31.208Z,101479.18
2019-03-30T02:15:02.238Z,101481.27
2019-03-30T02:17:33.564Z,101471.25
2019-03-30T02:20:09.253Z,101471.66
2019-03-30T02:22:39.910Z,101471.22
2019-03-30T02:25:11.140Z,101469.70
2019-03-30T02:27:42.152Z,101465.55
2019-03-30T02:30:13.105Z,101468.46
2019-03-30T02:32:44.986Z,101459.80
2019-03-30T02:35:16.223Z,101466.75
2019-03-30T02:37:46.973Z,101465.38
2019-03-30T02:40:17.695Z,101463.96
2019-03-30T02:42:48.805Z,101463.96
2019-03-30T02:45:19.492Z,101461.99
2019-03-30T02:47:50.144Z,101458.91
2019-03-30T02:50:20.840Z,101460.02
2019-03-30T02:52:51.889Z,101461.43
2019-03-30T02:55:22.824Z,101462.39
2019-03-30T02:57:54.225Z,101455.88
2019-03-30T03:00:24.878Z,101460.23
2019-03-30T03:02:56.141Z,101457.95
2019-03-30T03:05:28.474Z,101460.05
2019-03-30T03:08:00.222Z,101461.13
2019-03-30T03:10:30.966Z,101461.14
2019-03-30T03:13:03.557Z,101462.25
2019-03-30T03:15:35.186Z,101458.78
2019-03-30T03:18:06.098Z,101452.06
2019-03-30T03:20:36.970Z,101447.17
2019-03-30T03:23:07.635Z,101452.83
2019-03-30T03:25:38.589Z,101448.67
2019-03-30T03:28:09.878Z,101448.87
2019-03-30T03:30:40.714Z,101452.36
2019-03-30T03:33:11.522Z,101455.28
2019-03-30T03:35:42.366Z,101454.34
2019-03-30T03:38:13.331Z,101451.52
2019-03-30T03:40:43.993Z,101448.69
2019-03-30T03:43:16.551Z,101443.30
2019-03-30T03:45:47.227Z,101447.73
2019-03-30T03:48:18.106Z,101443.88
2019-03-30T03:50:53.683Z,101450.02
2019-03-30T03:53:24.700Z,101448.11
2019-03-30T03:55:56.828Z,101442.18
2019-03-30T03:58:30.959Z,101443.70
2019-03-30T04:01:04.048Z,101453.41
2019-03-30T04:03:35.732Z,101444.06
2019-03-30T04:06:07.870Z,101442.47
2019-03-30T04:08:41.221Z,101440.58
2019-03-30T04:11:14.804Z,101438.71
2019-03-30T04:13:48.298Z,101436.31
2019-03-30T04:16:19.956Z,101437.28
2019-03-30T04:18:50.617Z,101435.19
2019-03-30T04:21:21.770Z,101431.34
2019-03-30T04:23:54.521Z,101429.84
2019-03-30T04:26:25.951Z,101421.53
2019-03-30T04:28:57.004Z,101416.26
2019-03-30T04:31:28.058Z,101422.20
2019-03-30T04:33:58.734Z,101416.06
2019-03-30T04:36:29.419Z,101414.94
2019-03-30T04:39:00.483Z,101412.69
2019-03-30T04:41:31.215Z,101411.06
2019-03-30T04:44:01.990Z,101409.86
2019-03-30T04:46:32.850Z,101410.98
2019-03-30T04:49:03.567Z,101416.18
2019-03-30T04:51:34.395Z,101414.94
2019-03-30T04:54:05.316Z,101416.84
2019-03-30T04:56:36.250Z,101414.39
2019-03-30T04:59:06.919Z,101411.36
2019-03-30T05:01:37.605Z,101413.72
2019-03-30T05:04:08.347Z,101412.52
2019-03-30T05:06:39.490Z,101409.76
2019-03-30T05:09:10.212Z,101409.00
2019-03-30T05:11:41.292Z,101408.13
2019-03-30T05:14:12.068Z,101409.81
2019-03-30T05:16:43.024Z,101410.19
2019-03-30T05:19:13.806Z,101407.84
2019-03-30T05:21:45.311Z,101410.55
2019-03-30T05:24:16.759Z,101409.03
2019-03-30T05:26:47.677Z,101408.19
2019-03-30T05:29:18.368Z,101413.64
2019-03-30T05:31:49.412Z,101410.30
2019-03-30T05:34:20.389Z,101412.18
2019-03-30T05:36:51.059Z,101419.17
2019-03-30T05:39:21.970Z,101413.20
2019-03-30T05:41:52.889Z,101411.59
2019-03-30T05:44:23.686Z,101411.59
2019-03-30T05:46:57.448Z,101408.86
2019-03-30T05:49:28.375Z,101409.59
2019-03-30T05:51:59.581Z,101408.62
2019-03-30T05:54:30.320Z,101412.55
2019-03-30T05:57:01.700Z,101406.60
2019-03-30T05:59:32.398Z,101401.29
2019-03-30T06:02:03.770Z,101408.08
2019-03-30T06:04:34.444Z,101413.25
2019-03-30T06:07:06.930Z,101400.69
2019-03-30T06:09:39.403Z,101402.19
2019-03-30T06:12:10.067Z,101397.98
2019-03-30T06:14:41.055Z,101397.32
2019-03-30T06:17:11.715Z,101400.91
2019-03-30T06:19:42.382Z,101401.05
2019-03-30T06:22:13.062Z,101398.41
2019-03-30T06:24:44.130Z,101390.73
2019-03-30T06:27:14.885Z,101392.22
2019-03-30T06:29:48.850Z,101388.08
2019-03-30T06:32:19.806Z,101388.23
2019-03-30T06:34:50.638Z,101382.70
2019-03-30T06:37:22.730Z,101380.61
2019-03-30T06:39:53.388Z,101377.68
2019-03-30T06:42:24.420Z,101383.50
2019-03-30T06:44:55.208Z,101374.48
2019-03-30T06:47:26.723Z,101370.65
2019-03-30T06:49:58.525Z,101373.78
2019-03-30T06:52:29.556Z,101376.05
2019-03-30T06:55:02.099Z,101366.57
2019-03-30T06:57:33.058Z,101370.36
2019-03-30T07:00:04.195Z,101373.49
2019-03-30T07:02:35.418Z,101367.27
2019-03-30T07:05:09.299Z,101367.86
2019-03-30T07:07:42.246Z,101367.16
2019-03-30T07:10:14.146Z,101374.91
2019-03-30T07:12:46.354Z,101368.87
2019-03-30T07:15:17.029Z,101369.23
2019-03-30T07:17:48.334Z,101366.25
2019-03-30T07:20:30.003Z,101366.34
2019-03-30T07:23:11.676Z,101364.77
2019-03-30T07:25:33.867Z,101363.41
2019-03-30T07:28:04.540Z,101363.85
2019-03-30T07:30:35.635Z,101361.41
2019-03-30T07:33:08.253Z,101364.55
2019-03-30T07:35:39.544Z,101357.30
2019-03-30T07:38:10.350Z,101349.61
2019-03-30T07:40:41.461Z,101354.00
2019-03-30T07:43:13.822Z,101354.38
2019-03-30T07:45:45.167Z,101350.76
2019-03-30T07:48:16.121Z,101350.62
2019-03-30T07:50:47.150Z,101345.58
2019-03-30T07:53:26.289Z,101340.10
2019-03-30T07:55:51.454Z,101343.14
2019-03-30T07:58:22.387Z,101342.95
2019-03-30T08:00:53.108Z,101338.90
2019-03-30T08:03:24.076Z,101338.50
2019-03-30T08:05:54.879Z,101335.75
2019-03-30T08:08:25.979Z,101331.75
2019-03-30T08:10:56.971Z,101332.00
2019-03-30T08:13:27.959Z,101333.28
2019-03-30T08:15:58.699Z,101335.08
2019-03-30T08:18:29.838Z,101328.47
2019-03-30T08:21:00.634Z,101328.07
2019-03-30T08:23:40.126Z,101317.95
2019-03-30T08:26:04.936Z,101318.28
2019-03-30T08:28:36.049Z,101318.64
2019-03-30T08:31:06.771Z,101316.06
2019-03-30T08:33:38.376Z,101316.89
2019-03-30T08:36:10.358Z,101318.42
2019-03-30T08:38:41.043Z,101325.65
2019-03-30T08:41:11.705Z,101322.77
2019-03-30T08:43:42.436Z,101319.98
2019-03-30T08:46:13.097Z,101312.59
2019-03-30T08:48:43.815Z,101312.76
2019-03-30T08:51:14.523Z,101312.84
2019-03-30T08:53:54.492Z,101308.05
2019-03-30T08:56:17.945Z,101308.18
2019-03-30T08:58:48.612Z,101304.87
2019-03-30T09:01:19.314Z,101298.00
2019-03-30T09:03:51.206Z,101299.58
2019-03-30T09:06:22.168Z,101289.40
2019-03-30T09:08:52.860Z,101284.88
2019-03-30T09:11:23.740Z,101277.34
2019-03-30T09:13:54.673Z,101270.95
2019-03-30T09:16:25.599Z,101269.12
2019-03-30T09:18:56.668Z,101266.97
2019-03-30T09:21:27.314Z,101263.17
2019-03-30T09:24:09.479Z,101260.91
2019-03-30T09:26:30.647Z,101255.80
2019-03-30T09:29:01.376Z,101256.41
2019-03-30T09:31:32.299Z,101251.75
2019-03-30T09:34:03.649Z,101246.83
2019-03-30T09:36:34.478Z,101249.12
2019-03-30T09:39:07.856Z,101243.50
2019-03-30T09:41:39.028Z,101240.91
2019-03-30T09:44:09.706Z,101235.77
2019-03-30T09:46:40.378Z,101240.66
2019-03-30T09:49:11.083Z,101235.77
2019-03-30T09:51:41.839Z,101230.97
2019-03-30T09:54:23.747Z,101222.44
2019-03-30T09:56:46.033Z,101215.74
2019-03-30T09:59:17.006Z,101213.98
2019-03-30T10:01:48.667Z,101206.06
2019-03-30T10:04:19.604Z,101196.02
2019-03-30T10:06:50.286Z,101189.72
2019-03-30T10:09:21.370Z,101195.05
2019-03-30T10:11:52.055Z,101191.88
2019-03-30T10:14:23.054Z,101183.88
2019-03-30T10:16:53.807Z,101182.39
2019-03-30T10:19:27.797Z,101174.14
2019-03-30T10:21:58.697Z,101168.00
2019-03-30T10:24:37.981Z,101167.26
2019-03-30T10:27:03.446Z,101163.45
2019-03-30T10:29:34.414Z,101161.81
2019-03-30T10:32:06.309Z,101151.89
2019-03-30T10:34:39.738Z,101149.86
2019-03-30T10:37:11.814Z,101142.13
2019-03-30T10:39:42.578Z,101141.75
2019-03-30T10:42:13.327Z,101134.06
2019-03-30T10:44:44.042Z,101140.38
2019-03-30T10:47:14.986Z,101135.89
2019-03-30T10:49:46.848Z,101136.27
2019-03-30T10:52:17.602Z,101124.83
2019-03-30T10:54:52.803Z,101116.60
2019-03-30T10:57:21.812Z,101108.28
2019-03-30T10:59:52.991Z,101105.38
2019-03-30T11:02:24.001Z,101104.45
2019-03-30T11:04:57.896Z,101109.34
2019-03-30T11:07:29.026Z,101120.97
2019-03-30T11:10:03.254Z,101108.16
2019-03-30T11:12:33.934Z,101095.64
2019-03-30T11:15:07.092Z,101097.50
2019-03-30T11:17:38.702Z,101098.67
2019-03-30T11:20:10.049Z,101093.59
2019-03-30T11:22:40.743Z,101101.37
2019-03-30T11:25:11.535Z,101068.82
2019-03-30T11:27:42.278Z,101086.94
2019-03-30T11:30:13.539Z,101085.52
2019-03-30T11:32:44.695Z,101084.31
2019-03-30T11:35:17.313Z,101084.80
2019-03-30T11:37:48.589Z,101075.58
2019-03-30T11:40:19.377Z,101076.38
2019-03-30T11:42:52.172Z,101075.16
2019-03-30T11:45:22.865Z,101069.16
2019-03-30T11:47:53.992Z,101051.47
2019-03-30T11:50:24.650Z,101061.31
2019-03-30T11:52:55.431Z,101059.02
2019-03-30T11:55:26.523Z,101053.37
2019-03-30T11:57:58.535Z,101050.75
2019-03-30T12:00:29.564Z,101047.30
2019-03-30T12:03:00.680Z,101046.33
2019-03-30T12:05:31.790Z,101047.78
2019-03-30T12:08:02.815Z,101041.84
2019-03-30T12:10:33.500Z,101039.89
2019-03-30T12:13:04.367Z,101037.95
2019-03-30T12:15:35.413Z,101031.67
2019-03-30T12:18:06.381Z,101025.35
2019-03-30T12:20:37.342Z,101019.47
2019-03-30T12:23:08.355Z,101012.11
2019-03-30T12:25:39.024Z,101010.26
2019-03-30T12:28:09.981Z,101007.43
2019-03-30T12:30:40.902Z,101007.34
2019-03-30T12:33:11.611Z,101008.01
2019-03-30T12:35:42.526Z,100998.23
2019-03-30T12:38:13.452Z,101000.69
2019-03-30T12:40:44.356Z,100996.58
2019-03-30T12:43:15.032Z,100995.88
2019-03-30T12:45:45.965Z,100989.64
2019-03-30T12:48:17.638Z,100988.14
2019-03-30T12:50:48.312Z,100993.68
2019-03-30T12:53:19.265Z,100973.81
2019-03-30T12:55:49.959Z,100972.98
2019-03-30T12:58:20.653Z,100971.69
2019-03-30T13:00:51.359Z,100970.75
2019-03-30T13:03:22.359Z,100967.39
2019-03-30T13:05:53.316Z,100965.81
2019-03-30T13:08:24.302Z,100964.28
2019-03-30T13:10:55.266Z,100961.80
2019-03-30T13:13:26.311Z,100957.52
2019-03-30T13:15:57.234Z,100952.97
2019-03-30T13:18:28.193Z,100946.29
2019-03-30T13:20:59.335Z,100942.14
2019-03-30T13:23:30.279Z,100931.70
2019-03-30T13:26:04.057Z,100939.09
2019-03-30T13:28:33.681Z,100932.35
2019-03-30T13:31:04.462Z,100937.66
2019-03-30T13:33:35.464Z,100931.31
2019-03-30T13:36:10.682Z,100928.29
2019-03-30T13:38:41.164Z,100921.15
2019-03-30T13:41:14.080Z,100922.10
2019-03-30T13:43:44.228Z,100917.80
2019-03-30T13:46:14.925Z,100915.20
2019-03-30T13:48:45.998Z,100911.81
2019-03-30T13:51:16.976Z,100910.55
2019-03-30T13:53:48.035Z,100917.41
2019-03-30T13:56:22.518Z,100911.29
2019-03-30T13:58:53.557Z,100902.53
2019-03-30T14:01:24.236Z,100903.69
2019-03-30T14:03:54.926Z,100888.30
2019-03-30T14:06:25.801Z,100891.33
2019-03-30T14:08:59.311Z,100890.36
2019-03-30T14:11:32.787Z,100886.41
2019-03-30T14:14:03.924Z,100883.08
2019-03-30T14:16:35.664Z,100872.58
2019-03-30T14:19:06.787Z,100876.81
2019-03-30T14:21:37.457Z,100874.73
2019-03-30T14:24:08.154Z,100872.64
2019-03-30T14:26:40.158Z,100867.97
2019-03-30T14:29:11.181Z,100867.79
2019-03-30T14:31:42.012Z,100858.61
2019-03-30T14:34:12.978Z,100846.52
2019-03-30T14:36:43.987Z,100845.50
2019-03-30T14:39:15.121Z,100845.00
2019-03-30T14:41:46.958Z,100836.38
2019-03-30T14:44:17.932Z,100835.74
2019-03-30T14:46:48.633Z,100827.49
2019-03-30T14:49:21.151Z,100831.55
2019-03-30T14:51:52.084Z,100831.98
2019-03-30T14:54:24.400Z,100827.81
2019-03-30T14:56:55.890Z,100829.55
2019-03-30T14:59:26.589Z,100815.50
2019-03-30T15:01:57.228Z,100816.86
2019-03-30T15:04:28.248Z,100816.73
2019-03-30T15:06:58.961Z,100811.52
2019-03-30T15:09:30.732Z,100811.47
2019-03-30T15:12:01.425Z,100807.63
2019-03-30T15:14:32.238Z,100809.66
2019-03-30T15:17:02.893Z,100810.67
2019-03-30T15:19:33.743Z,100803.48
2019-03-30T15:22:04.939Z,100801.83
2019-03-30T15:24:36.017Z,100802.67
2019-03-30T15:27:06.689Z,100807.25
2019-03-30T15:29:37.701Z,100798.61
2019-03-30T15:32:08.411Z,100803.18
2019-03-30T15:34:39.175Z,100797.38
2019-03-30T15:37:10.058Z,100795.73
2019-03-30T15:39:41.275Z,100791.06
2019-03-30T15:42:12.039Z,100791.90
2019-03-30T15:44:42.729Z,100787.84
2019-03-30T15:47:13.643Z,100787.00
2019-03-30T15:49:44.683Z,100783.47
2019-03-30T15:52:15.673Z,100774.30
2019-03-30T15:54:46.661Z,100773.08
2019-03-30T15:57:17.707Z,100765.80
2019-03-30T15:59:48.375Z,100768.98
2019-03-30T16:02:19.310Z,100766.17
2019-03-30T16:04:50.228Z,100773.03
2019-03-30T16:07:20.916Z,100772.62
2019-03-30T16:09:51.914Z,100767.83
2019-03-30T16:12:22.870Z,100773.23
2019-03-30T16:14:53.847Z,100767.60
2019-03-30T16:17:24.914Z,100766.25
2019-03-30T16:19:55.842Z,100761.46
2019-03-30T16:22:26.944Z,100767.89
2019-03-30T16:24:57.940Z,100763.80
2019-03-30T16:27:29.616Z,100763.88
2019-03-30T16:30:00.584Z,100758.91
2019-03-30T16:32:31.603Z,100760.44
2019-03-30T16:35:02.380Z,100770.70
2019-03-30T16:37:33.047Z,100761.50
2019-03-30T16:40:06.316Z,100761.53
2019-03-30T16:42:38.176Z,100761.92
2019-03-30T16:45:09.381Z,100757.81
2019-03-30T16:47:40.377Z,100757.79
2019-03-30T16:50:11.747Z,100755.67
2019-03-30T16:52:42.442Z,100759.04
2019-03-30T16:55:13.739Z,100761.92
2019-03-30T16:57:44.780Z,100758.52
2019-03-30T17:00:16.429Z,100761.05
2019-03-30T17:02:47.439Z,100761.30
2019-03-30T17:05:18.151Z,100756.94
2019-03-30T17:07:49.116Z,100753.30
2019-03-30T17:10:20.564Z,100764.70
2019-03-30T17:12:51.602Z,100762.91
2019-03-30T17:15:22.288Z,100752.09
2019-03-30T17:17:53.241Z,100758.58
2019-03-30T17:20:24.208Z,100757.95
2019-03-30T17:22:58.599Z,100760.95
2019-03-30T17:25:27.771Z,100761.30
2019-03-30T17:27:59.113Z,100760.83
2019-03-30T17:30:31.128Z,100762.24
2019-03-30T17:33:02.072Z,100757.48
2019-03-30T17:35:33.013Z,100764.73
2019-03-30T17:38:04.060Z,100764.16
2019-03-30T17:40:34.740Z,100763.38
2019-03-30T17:43:05.576Z,100761.39
2019-03-30T17:45:36.272Z,100762.27
2019-03-30T17:48:07.322Z,100764.17
2019-03-30T17:50:38.453Z,100763.64
2019-03-30T17:53:09.674Z,100763.88
2019-03-30T17:55:40.457Z,100769.02
2019-03-30T17:58:13.288Z,100768.77
2019-03-30T18:00:44.364Z,100774.36
2019-03-30T18:03:15.294Z,100777.13
2019-03-30T18:05:46.246Z,100780.75
2019-03-30T18:08:17.405Z,100784.82
2019-03-30T18:10:48.106Z,100782.22
2019-03-30T18:13:18.779Z,100784.11
2019-03-30T18:15:49.540Z,100788.05
2019-03-30T18:18:20.511Z,100791.44
2019-03-30T18:20:55.108Z,100790.84
2019-03-30T18:23:24.722Z,100788.02
2019-03-30T18:25:56.368Z,100797.62
2019-03-30T18:28:27.737Z,100792.16
2019-03-30T18:30:58.996Z,100795.23
2019-03-30T18:33:30.452Z,100794.27
2019-03-30T18:36:01.806Z,100800.16
2019-03-30T18:38:36.756Z,100799.22
2019-03-30T18:41:10.306Z,100803.97
2019-03-30T18:43:41.363Z,100803.30
2019-03-30T18:46:12.767Z,100808.73
2019-03-30T18:48:43.916Z,100809.82
2019-03-30T18:51:15.521Z,100805.84
2019-03-30T18:53:47.697Z,100799.16
2019-03-30T18:56:20.460Z,100811.41
2019-03-30T18:58:51.550Z,100815.31
2019-03-30T19:01:23.072Z,100810.98
2019-03-30T19:03:54.521Z,100811.17
2019-03-30T19:06:25.254Z,100805.47
2019-03-30T19:08:56.309Z,100808.34
2019-03-30T19:11:27.087Z,100802.70
2019-03-30T19:13:58.022Z,100806.05
2019-03-30T19:16:29.148Z,100809.11
2019-03-30T19:19:00.144Z,100809.77
2019-03-30T19:21:30.826Z,100812.81
2019-03-30T19:24:01.827Z,100813.84
2019-03-30T19:26:32.747Z,100811.67
2019-03-30T19:29:03.700Z,100815.35
2019-03-30T19:31:34.619Z,100812.19
2019-03-30T19:34:05.579Z,100815.20
2019-03-30T19:36:36.525Z,100805.50
2019-03-30T19:39:10.030Z,100808.33
2019-03-30T19:41:40.985Z,100816.55
2019-03-30T19:44:12.381Z,100813.88
2019-03-30T19:46:43.654Z,100817.04
2019-03-30T19:49:14.692Z,100821.55
2019-03-30T19:51:45.382Z,100816.19
2019-03-30T19:54:16.103Z,100817.48
2019-03-30T19:56:47.102Z,100817.31
2019-03-30T19:59:17.764Z,100818.63
2019-03-30T20:01:48.864Z,100813.13
2019-03-30T20:04:19.903Z,100809.41
2019-03-30T20:06:51.822Z,100816.94
2019-03-30T20:09:22.861Z,100812.06
2019-03-30T20:11:53.846Z,100816.23
2019-03-30T20:14:24.517Z,100820.37
2019-03-30T20:16:55.476Z,100820.69
2019-03-30T20:19:26.161Z,100813.49
2019-03-30T20:21:57.583Z,100811.65
2019-03-30T20:24:28.715Z,100810.80
2019-03-30T20:27:00.195Z,100812.44
2019-03-30T20:29:30.873Z,100804.91
2019-03-30T20:32:01.838Z,100803.21
2019-03-30T20:34:33.945Z,100802.53
2019-03-30T20:37:04.721Z,100801.80
2019-03-30T20:39:35.388Z,100796.61
2019-03-30T20:42:06.317Z,100797.41
2019-03-30T20:44:37.287Z,100799.58
2019-03-30T20:47:08.322Z,100796.24
2019-03-30T20:49:39.392Z,100798.35
2019-03-30T20:52:10.064Z,100793.16
2019-03-30T20:54:41.038Z,100800.63
2019-03-30T20:57:11.780Z,100796.64
2019-03-30T20:59:42.507Z,100798.97
2019-03-30T21:02:13.795Z,100798.91
2019-03-30T21:04:44.481Z,100792.17
2019-03-30T21:07:15.256Z,100798.67
2019-03-30T21:09:46.265Z,100793.11
2019-03-30T21:12:17.036Z,100792.73
2019-03-30T21:14:47.962Z,100790.41
2019-03-30T21:17:19.130Z,100792.56
2019-03-30T21:19:50.205Z,100791.72
2019-03-30T21:22:21.032Z,100794.32
2019-03-30T21:24:53.079Z,100793.19
2019-03-30T21:27:23.828Z,100790.25
2019-03-30T21:29:55.295Z,100789.62
2019-03-30T21:32:26.063Z,100787.23
2019-03-30T21:34:57.044Z,100785.87
2019-03-30T21:37:28.139Z,100785.97
2019-03-30T21:39:59.079Z,100790.50
2019-03-30T21:42:30.014Z,100790.81
2019-03-30T21:45:00.830Z,100782.11
2019-03-30T21:47:31.702Z,100797.59
2019-03-30T21:50:02.858Z,100795.73
2019-03-30T21:52:33.803Z,100792.74
2019-03-30T21:55:05.380Z,100787.38
2019-03-30T21:57:36.180Z,100791.86
2019-03-30T22:00:12.520Z,100796.36
2019-03-30T22:02:43.687Z,100795.92
2019-03-30T22:05:14.683Z,100795.85
2019-03-30T22:07:45.790Z,100793.36
2019-03-30T22:10:21.401Z,100794.30
2019-03-30T22:12:52.364Z,100783.63
2019-03-30T22:15:29.202Z,100789.80
2019-03-30T22:18:00.262Z,100790.65
2019-03-30T22:20:31.056Z,100793.09
2019-03-30T22:23:01.770Z,100786.16
2019-03-30T22:25:32.916Z,100782.21
2019-03-30T22:28:04.358Z,100782.07
2019-03-30T22:30:36.211Z,100782.13
2019-03-30T22:33:08.267Z,100786.63
2019-03-30T22:35:40.412Z,100780.31
2019-03-30T22:38:11.089Z,100777.49
2019-03-30T22:40:41.826Z,100781.20
2019-03-30T22:43:13.085Z,100778.39
2019-03-30T22:45:45.516Z,100770.64
2019-03-30T22:48:17.266Z,100768.98
2019-03-30T22:50:48.288Z,100763.20
2019-03-30T22:53:19.223Z,100761.09
2019-03-30T22:55:51.715Z,100757.72
2019-03-30T22:58:22.835Z,100761.41
2019-03-30T23:01:10.066Z,100763.75
2019-03-30T23:03:43.014Z,100759.53
2019-03-30T23:06:14.216Z,100773.14
2019-03-30T23:08:44.904Z,100770.61
2019-03-30T23:11:15.546Z,100771.63
2019-03-30T23:13:48.083Z,100777.09
2019-03-30T23:16:18.750Z,100775.98
2019-03-30T23:18:50.834Z,100768.60
2019-03-30T23:21:22.119Z,100761.97
2019-03-30T23:23:53.834Z,100779.80
2019-03-30T23:26:25.121Z,100769.16
2019-03-30T23:28:59.301Z,100763.34
2019-03-30T23:31:31.198Z,100760.27
2019-03-30T23:34:02.045Z,100762.52
2019-03-30T23:36:32.952Z,100763.47
2019-03-30T23:39:06.028Z,100763.59
2019-03-30T23:41:37.406Z,100764.15
2019-03-30T23:44:08.082Z,100761.16
2019-03-30T23:46:39.181Z,100756.52
2019-03-30T23:49:10.193Z,100751.37
2019-03-30T23:51:41.678Z,100751.75
2019-03-30T23:54:16.450Z,100755.55
2019-03-30T23:56:47.105Z,100758.51
2019-03-30T23:59:18.395Z,100759.55
